sensor_id;sensor_type;location;lat;lon;timestamp;pressure;altitude;pressure_sealevel;temperature;humidity
53900;BME280;40509;32.858;-116.858;2023-04-19T00:02:20;97847.22;;;20.74;49.31
53900;BME280;40509;32.858;-116.858;2023-04-19T00:04:48;97836.03;;;20.72;48.95
53900;BME280;40509;32.858;-116.858;2023-04-19T00:07:15;97845.19;;;20.86;48.82
53900;BME280;40509;32.858;-116.858;2023-04-19T00:09:44;97852.81;;;20.79;48.56
53900;BME280;40509;32.858;-116.858;2023-04-19T00:12:11;97838.75;;;20.80;48.64
53900;BME280;40509;32.858;-116.858;2023-04-19T00:14:38;97841.75;;;20.85;48.30
53900;BME280;40509;32.858;-116.858;2023-04-19T00:17:05;97838.44;;;20.83;48.83
53900;BME280;40509;32.858;-116.858;2023-04-19T00:19:33;97844.63;;;20.92;48.83
53900;BME280;40509;32.858;-116.858;2023-04-19T00:22:00;97835.38;;;20.88;49.00
53900;BME280;40509;32.858;-116.858;2023-04-19T00:24:27;97847.31;;;20.82;49.50
53900;BME280;40509;32.858;-116.858;2023-04-19T00:26:54;97840.78;;;20.86;49.56
53900;BME280;40509;32.858;-116.858;2023-04-19T00:29:23;97841.38;;;20.80;48.93
53900;BME280;40509;32.858;-116.858;2023-04-19T00:31:50;97836.81;;;20.82;48.88
53900;BME280;40509;32.858;-116.858;2023-04-19T00:34:19;97839.38;;;20.64;49.37
53900;BME280;40509;32.858;-116.858;2023-04-19T00:36:46;97840.03;;;20.76;49.02
53900;BME280;40509;32.858;-116.858;2023-04-19T00:39:13;97840.47;;;20.71;49.69
53900;BME280;40509;32.858;-116.858;2023-04-19T00:41:41;97848.84;;;20.75;49.20
53900;BME280;40509;32.858;-116.858;2023-04-19T00:44:08;97838.81;;;20.70;48.83
53900;BME280;40509;32.858;-116.858;2023-04-19T00:46:36;97840.41;;;20.81;48.57
53900;BME280;40509;32.858;-116.858;2023-04-19T00:49:04;97847.59;;;20.79;47.42
53900;BME280;40509;32.858;-116.858;2023-04-19T00:51:33;97848.03;;;20.75;49.43
53900;BME280;40509;32.858;-116.858;2023-04-19T00:54:02;97852.75;;;20.71;48.82
53900;BME280;40509;32.858;-116.858;2023-04-19T00:56:30;97854.63;;;20.79;49.37
53900;BME280;40509;32.858;-116.858;2023-04-19T00:58:59;97861.47;;;20.71;49.18
53900;BME280;40509;32.858;-116.858;2023-04-19T01:01:27;97855.84;;;20.84;49.03
53900;BME280;40509;32.858;-116.858;2023-04-19T01:03:54;97853.81;;;20.78;47.95
53900;BME280;40509;32.858;-116.858;2023-04-19T01:06:22;97857.34;;;20.69;47.69
53900;BME280;40509;32.858;-116.858;2023-04-19T01:08:49;97858.03;;;20.61;48.47
53900;BME280;40509;32.858;-116.858;2023-04-19T01:11:17;97858.69;;;20.73;48.47
53900;BME280;40509;32.858;-116.858;2023-04-19T01:13:44;97858.16;;;20.69;48.23
53900;BME280;40509;32.858;-116.858;2023-04-19T01:16:12;97862.63;;;20.49;47.85
53900;BME280;40509;32.858;-116.858;2023-04-19T01:18:39;97868.66;;;20.60;46.82
53900;BME280;40509;32.858;-116.858;2023-04-19T01:21:07;97869.34;;;20.34;46.49
53900;BME280;40509;32.858;-116.858;2023-04-19T01:23:35;97865.91;;;20.33;46.38
53900;BME280;40509;32.858;-116.858;2023-04-19T01:26:05;97876.25;;;20.35;46.79
53900;BME280;40509;32.858;-116.858;2023-04-19T01:28:32;97876.91;;;20.09;46.84
53900;BME280;40509;32.858;-116.858;2023-04-19T01:30:59;97881.91;;;19.93;46.89
53900;BME280;40509;32.858;-116.858;2023-04-19T01:33:27;97878.88;;;19.68;46.97
53900;BME280;40509;32.858;-116.858;2023-04-19T01:35:55;97879.00;;;19.76;47.14
53900;BME280;40509;32.858;-116.858;2023-04-19T01:38:22;97886.00;;;19.95;47.00
53900;BME280;40509;32.858;-116.858;2023-04-19T01:40:50;97885.72;;;20.08;46.16
53900;BME280;40509;32.858;-116.858;2023-04-19T01:43:17;97889.50;;;20.24;46.26
53900;BME280;40509;32.858;-116.858;2023-04-19T01:45:44;97890.31;;;20.34;46.23
53900;BME280;40509;32.858;-116.858;2023-04-19T01:48:12;97887.50;;;20.45;46.16
53900;BME280;40509;32.858;-116.858;2023-04-19T01:50:39;97892.59;;;20.47;46.37
53900;BME280;40509;32.858;-116.858;2023-04-19T01:53:06;97889.84;;;20.48;46.69
53900;BME280;40509;32.858;-116.858;2023-04-19T01:55:34;97891.22;;;20.52;46.93
53900;BME280;40509;32.858;-116.858;2023-04-19T01:58:01;97899.88;;;20.53;46.59
53900;BME280;40509;32.858;-116.858;2023-04-19T02:00:29;97903.88;;;20.57;46.96
53900;BME280;40509;32.858;-116.858;2023-04-19T02:02:57;97901.78;;;20.61;46.97
53900;BME280;40509;32.858;-116.858;2023-04-19T02:05:24;97913.66;;;20.65;47.26
53900;BME280;40509;32.858;-116.858;2023-04-19T02:07:53;97911.28;;;20.62;47.44
53900;BME280;40509;32.858;-116.858;2023-04-19T02:10:20;97910.94;;;20.57;47.51
53900;BME280;40509;32.858;-116.858;2023-04-19T02:12:47;97924.44;;;20.52;47.51
53900;BME280;40509;32.858;-116.858;2023-04-19T02:15:15;97925.72;;;20.48;47.95
53900;BME280;40509;32.858;-116.858;2023-04-19T02:17:42;97932.63;;;20.49;47.66
53900;BME280;40509;32.858;-116.858;2023-04-19T02:20:12;97924.75;;;20.49;48.00
53900;BME280;40509;32.858;-116.858;2023-04-19T02:22:41;97924.69;;;20.59;47.64
53900;BME280;40509;32.858;-116.858;2023-04-19T02:25:10;97929.28;;;20.57;47.82
53900;BME280;40509;32.858;-116.858;2023-04-19T02:27:38;97927.63;;;20.55;47.84
53900;BME280;40509;32.858;-116.858;2023-04-19T02:30:06;97941.84;;;20.53;48.24
53900;BME280;40509;32.858;-116.858;2023-04-19T02:32:34;97943.09;;;20.49;48.25
53900;BME280;40509;32.858;-116.858;2023-04-19T02:35:01;97946.53;;;20.49;48.48
53900;BME280;40509;32.858;-116.858;2023-04-19T02:37:29;97959.63;;;20.59;48.49
53900;BME280;40509;32.858;-116.858;2023-04-19T02:39:57;97962.78;;;20.63;48.47
53900;BME280;40509;32.858;-116.858;2023-04-19T02:42:24;97962.63;;;20.64;48.41
53900;BME280;40509;32.858;-116.858;2023-04-19T02:44:53;97978.53;;;20.63;48.69
53900;BME280;40509;32.858;-116.858;2023-04-19T02:47:24;97982.09;;;20.62;48.74
53900;BME280;40509;32.858;-116.858;2023-04-19T02:49:51;97983.09;;;20.61;48.95
53900;BME280;40509;32.858;-116.858;2023-04-19T02:52:19;97973.81;;;20.66;49.01
53900;BME280;40509;32.858;-116.858;2023-04-19T02:54:47;97976.44;;;20.66;48.82
53900;BME280;40509;32.858;-116.858;2023-04-19T02:57:14;97979.06;;;20.66;48.96
53900;BME280;40509;32.858;-116.858;2023-04-19T02:59:42;97982.00;;;20.63;49.39
53900;BME280;40509;32.858;-116.858;2023-04-19T03:02:10;97982.81;;;20.64;49.36
53900;BME280;40509;32.858;-116.858;2023-04-19T03:04:37;97992.47;;;20.63;49.72
53900;BME280;40509;32.858;-116.858;2023-04-19T03:07:08;97995.91;;;20.64;49.58
53900;BME280;40509;32.858;-116.858;2023-04-19T03:09:36;97992.34;;;20.65;49.79
53900;BME280;40509;32.858;-116.858;2023-04-19T03:12:05;97992.34;;;20.65;49.70
53900;BME280;40509;32.858;-116.858;2023-04-19T03:14:33;98004.91;;;20.61;49.63
53900;BME280;40509;32.858;-116.858;2023-04-19T03:17:00;98002.41;;;20.69;49.47
53900;BME280;40509;32.858;-116.858;2023-04-19T03:19:28;97998.69;;;20.72;49.87
53900;BME280;40509;32.858;-116.858;2023-04-19T03:21:55;97997.88;;;20.71;49.81
53900;BME280;40509;32.858;-116.858;2023-04-19T03:24:27;98008.72;;;20.77;51.04
53900;BME280;40509;32.858;-116.858;2023-04-19T03:27:02;98012.25;;;20.95;49.72
53900;BME280;40509;32.858;-116.858;2023-04-19T03:29:31;98017.25;;;20.88;50.10
53900;BME280;40509;32.858;-116.858;2023-04-19T03:32:06;98012.41;;;20.94;49.94
53900;BME280;40509;32.858;-116.858;2023-04-19T03:34:33;98023.50;;;20.78;50.18
53900;BME280;40509;32.858;-116.858;2023-04-19T03:37:00;98021.03;;;20.76;50.40
53900;BME280;40509;32.858;-116.858;2023-04-19T03:39:29;98028.59;;;20.79;50.35
53900;BME280;40509;32.858;-116.858;2023-04-19T03:42:02;98035.34;;;20.82;50.40
53900;BME280;40509;32.858;-116.858;2023-04-19T03:44:42;98045.59;;;20.75;50.79
53900;BME280;40509;32.858;-116.858;2023-04-19T03:47:10;98042.13;;;20.84;52.33
53900;BME280;40509;32.858;-116.858;2023-04-19T03:49:42;98046.94;;;20.89;51.52
53900;BME280;40509;32.858;-116.858;2023-04-19T03:52:12;98045.28;;;20.88;51.61
53900;BME280;40509;32.858;-116.858;2023-04-19T03:54:39;98050.53;;;20.88;51.67
53900;BME280;40509;32.858;-116.858;2023-04-19T03:57:12;98054.53;;;20.92;51.50
53900;BME280;40509;32.858;-116.858;2023-04-19T03:59:40;98057.19;;;20.82;51.35
53900;BME280;40509;32.858;-116.858;2023-04-19T04:02:08;98061.56;;;20.92;51.30
53900;BME280;40509;32.858;-116.858;2023-04-19T04:04:36;98059.94;;;20.91;51.98
53900;BME280;40509;32.858;-116.858;2023-04-19T04:07:03;98061.69;;;20.90;52.49
53900;BME280;40509;32.858;-116.858;2023-04-19T04:09:31;98062.56;;;20.91;52.20
53900;BME280;40509;32.858;-116.858;2023-04-19T04:11:58;98071.22;;;20.91;52.98
53900;BME280;40509;32.858;-116.858;2023-04-19T04:14:26;98074.81;;;20.90;52.92
53900;BME280;40509;32.858;-116.858;2023-04-19T04:16:53;98077.44;;;20.90;52.67
53900;BME280;40509;32.858;-116.858;2023-04-19T04:19:21;98082.69;;;20.90;52.70
53900;BME280;40509;32.858;-116.858;2023-04-19T04:21:49;98079.81;;;20.93;53.00
53900;BME280;40509;32.858;-116.858;2023-04-19T04:24:17;98080.91;;;20.91;53.13
53900;BME280;40509;32.858;-116.858;2023-04-19T04:27:04;98090.16;;;20.95;52.92
53900;BME280;40509;32.858;-116.858;2023-04-19T04:29:36;98100.25;;;20.89;53.04
53900;BME280;40509;32.858;-116.858;2023-04-19T04:32:07;98094.28;;;20.87;53.32
53900;BME280;40509;32.858;-116.858;2023-04-19T04:34:39;98096.91;;;20.87;52.94
53900;BME280;40509;32.858;-116.858;2023-04-19T04:37:12;98098.88;;;20.85;53.36
53900;BME280;40509;32.858;-116.858;2023-04-19T04:39:40;98101.66;;;20.84;53.07
53900;BME280;40509;32.858;-116.858;2023-04-19T04:42:09;98099.69;;;20.86;53.00
53900;BME280;40509;32.858;-116.858;2023-04-19T04:44:37;98105.94;;;20.85;53.06
53900;BME280;40509;32.858;-116.858;2023-04-19T04:47:06;98111.69;;;20.88;53.00
53900;BME280;40509;32.858;-116.858;2023-04-19T04:49:40;98113.50;;;20.88;52.77
53900;BME280;40509;32.858;-116.858;2023-04-19T04:52:07;98106.06;;;20.83;52.73
53900;BME280;40509;32.858;-116.858;2023-04-19T04:54:42;98111.44;;;20.82;52.74
53900;BME280;40509;32.858;-116.858;2023-04-19T04:57:19;98113.25;;;20.81;52.84
53900;BME280;40509;32.858;-116.858;2023-04-19T04:59:46;98110.78;;;20.80;52.89
53900;BME280;40509;32.858;-116.858;2023-04-19T05:02:15;98113.25;;;20.81;52.83
53900;BME280;40509;32.858;-116.858;2023-04-19T05:04:42;98111.59;;;20.80;52.87
53900;BME280;40509;32.858;-116.858;2023-04-19T05:07:10;98108.81;;;20.82;52.66
53900;BME280;40509;32.858;-116.858;2023-04-19T05:09:37;98109.94;;;20.79;52.71
53900;BME280;40509;32.858;-116.858;2023-04-19T05:12:05;98117.78;;;20.79;52.54
53900;BME280;40509;32.858;-116.858;2023-04-19T05:14:32;98115.19;;;20.79;52.63
53900;BME280;40509;32.858;-116.858;2023-04-19T05:17:00;98116.03;;;20.80;52.55
53900;BME280;40509;32.858;-116.858;2023-04-19T05:19:27;98118.91;;;20.77;52.41
53900;BME280;40509;32.858;-116.858;2023-04-19T05:22:01;98124.28;;;20.75;52.77
53900;BME280;40509;32.858;-116.858;2023-04-19T05:24:28;98128.88;;;20.73;52.37
53900;BME280;40509;32.858;-116.858;2023-04-19T05:26:56;98129.41;;;20.67;52.86
53900;BME280;40509;32.858;-116.858;2023-04-19T05:29:24;98129.03;;;20.71;53.08
53900;BME280;40509;32.858;-116.858;2023-04-19T05:31:54;98129.84;;;20.72;52.97
53900;BME280;40509;32.858;-116.858;2023-04-19T05:34:26;98129.84;;;20.72;52.97
53900;BME280;40509;32.858;-116.858;2023-04-19T05:36:55;98129.41;;;20.67;53.05
53900;BME280;40509;32.858;-116.858;2023-04-19T05:39:23;98129.28;;;20.68;52.85
53900;BME280;40509;32.858;-116.858;2023-04-19T05:41:51;98133.28;;;20.72;52.60
53900;BME280;40509;32.858;-116.858;2023-04-19T05:44:18;98139.22;;;20.65;53.08
53900;BME280;40509;32.858;-116.858;2023-04-19T05:46:45;98135.59;;;20.66;52.82
53900;BME280;40509;32.858;-116.858;2023-04-19T05:49:17;98141.13;;;20.63;52.94
53900;BME280;40509;32.858;-116.858;2023-04-19T05:52:07;98142.25;;;20.60;52.85
53900;BME280;40509;32.858;-116.858;2023-04-19T05:54:45;98143.63;;;20.64;52.79
53900;BME280;40509;32.858;-116.858;2023-04-19T05:57:12;98137.69;;;20.62;52.74
53900;BME280;40509;32.858;-116.858;2023-04-19T05:59:39;98141.97;;;20.63;52.51
53900;BME280;40509;32.858;-116.858;2023-04-19T06:02:09;98138.50;;;20.63;52.46
53900;BME280;40509;32.858;-116.858;2023-04-19T06:04:36;98144.72;;;20.62;52.59
53900;BME280;40509;32.858;-116.858;2023-04-19T06:07:03;98141.84;;;20.65;52.64
53900;BME280;40509;32.858;-116.858;2023-04-19T06:09:31;98141.16;;;20.72;52.18
53900;BME280;40509;32.858;-116.858;2023-04-19T06:11:58;98138.66;;;20.71;52.05
53900;BME280;40509;32.858;-116.858;2023-04-19T06:14:26;98137.25;;;20.67;52.28
53900;BME280;40509;32.858;-116.858;2023-04-19T06:16:55;98141.28;;;20.71;52.32
53900;BME280;40509;32.858;-116.858;2023-04-19T06:19:22;98144.47;;;20.65;52.01
53900;BME280;40509;32.858;-116.858;2023-04-19T06:21:49;98142.53;;;20.57;52.34
53900;BME280;40509;32.858;-116.858;2023-04-19T06:24:17;98136.06;;;20.51;52.40
53900;BME280;40509;32.858;-116.858;2023-04-19T06:26:45;98139.19;;;20.55;52.28
53900;BME280;40509;32.858;-116.858;2023-04-19T06:29:13;98125.69;;;20.50;52.46
53900;BME280;40509;32.858;-116.858;2023-04-19T06:31:40;98130.66;;;20.53;52.14
53900;BME280;40509;32.858;-116.858;2023-04-19T06:34:08;98130.38;;;20.56;52.22
53900;BME280;40509;32.858;-116.858;2023-04-19T06:36:36;98124.31;;;20.46;52.58
53900;BME280;40509;32.858;-116.858;2023-04-19T06:39:03;98125.44;;;20.43;52.63
53900;BME280;40509;32.858;-116.858;2023-04-19T06:41:31;98123.34;;;20.37;52.87
53900;BME280;40509;32.858;-116.858;2023-04-19T06:43:58;98117.44;;;20.35;52.73
53900;BME280;40509;32.858;-116.858;2023-04-19T06:46:26;98125.00;;;20.38;52.71
53900;BME280;40509;32.858;-116.858;2023-04-19T06:48:53;98126.53;;;20.41;52.65
53900;BME280;40509;32.858;-116.858;2023-04-19T06:51:21;98126.94;;;20.46;52.09
53900;BME280;40509;32.858;-116.858;2023-04-19T06:53:49;98123.78;;;20.42;52.40
53900;BME280;40509;32.858;-116.858;2023-04-19T06:56:16;98127.34;;;20.41;52.55
53900;BME280;40509;32.858;-116.858;2023-04-19T06:58:43;98121.56;;;20.37;52.07
53900;BME280;40509;32.858;-116.858;2023-04-19T07:01:11;98124.59;;;20.43;52.28
53900;BME280;40509;32.858;-116.858;2023-04-19T07:03:38;98130.94;;;20.40;52.04
53900;BME280;40509;32.858;-116.858;2023-04-19T07:06:06;98124.06;;;20.39;52.04
53900;BME280;40509;32.858;-116.858;2023-04-19T07:08:33;98123.34;;;20.37;52.10
53900;BME280;40509;32.858;-116.858;2023-04-19T07:11:00;98122.94;;;20.42;51.84
53900;BME280;40509;32.858;-116.858;2023-04-19T07:13:27;98122.69;;;20.35;51.88
53900;BME280;40509;32.858;-116.858;2023-04-19T07:15:54;98117.56;;;20.33;52.21
53900;BME280;40509;32.858;-116.858;2023-04-19T07:18:22;98129.84;;;20.33;52.16
53900;BME280;40509;32.858;-116.858;2023-04-19T07:20:49;98121.41;;;20.29;52.19
53900;BME280;40509;32.858;-116.858;2023-04-19T07:23:16;98126.13;;;20.26;52.43
53900;BME280;40509;32.858;-116.858;2023-04-19T07:25:44;98136.19;;;20.30;52.00
53900;BME280;40509;32.858;-116.858;2023-04-19T07:28:12;98131.38;;;20.26;52.11
53900;BME280;40509;32.858;-116.858;2023-04-19T07:30:39;98137.28;;;20.28;52.08
53900;BME280;40509;32.858;-116.858;2023-04-19T07:33:06;98139.50;;;20.23;51.84
53900;BME280;40509;32.858;-116.858;2023-04-19T07:35:34;98136.03;;;20.22;52.04
53900;BME280;40509;32.858;-116.858;2023-04-19T07:38:01;98133.56;;;20.20;51.63
53900;BME280;40509;32.858;-116.858;2023-04-19T07:40:28;98126.25;;;20.24;51.49
53900;BME280;40509;32.858;-116.858;2023-04-19T07:42:56;98128.59;;;20.17;51.73
53900;BME280;40509;32.858;-116.858;2023-04-19T07:45:23;98123.78;;;20.23;51.82
53900;BME280;40509;32.858;-116.858;2023-04-19T07:47:51;98122.41;;;20.18;51.72
53900;BME280;40509;32.858;-116.858;2023-04-19T07:50:18;98124.03;;;20.19;51.78
53900;BME280;40509;32.858;-116.858;2023-04-19T07:52:45;98111.06;;;20.18;51.79
53900;BME280;40509;32.858;-116.858;2023-04-19T07:55:12;98111.06;;;20.18;51.81
53900;BME280;40509;32.858;-116.858;2023-04-19T07:57:40;98113.84;;;20.16;51.59
53900;BME280;40509;32.858;-116.858;2023-04-19T08:00:11;98119.09;;;20.16;51.86
53900;BME280;40509;32.858;-116.858;2023-04-19T08:02:42;98119.78;;;20.18;51.59
53900;BME280;40509;32.858;-116.858;2023-04-19T08:05:11;98119.09;;;20.16;51.75
53900;BME280;40509;32.858;-116.858;2023-04-19T08:07:39;98116.59;;;20.15;51.62
53900;BME280;40509;32.858;-116.858;2023-04-19T08:10:06;98119.63;;;20.10;51.71
53900;BME280;40509;32.858;-116.858;2023-04-19T08:12:34;98115.63;;;20.06;51.62
53900;BME280;40509;32.858;-116.858;2023-04-19T08:15:03;98106.94;;;20.05;51.93
53900;BME280;40509;32.858;-116.858;2023-04-19T08:17:30;98112.84;;;19.98;51.93
53900;BME280;40509;32.858;-116.858;2023-04-19T08:19:57;98105.56;;;20.01;51.48
53900;BME280;40509;32.858;-116.858;2023-04-19T08:22:25;98108.31;;;20.00;51.74
53900;BME280;40509;32.858;-116.858;2023-04-19T08:24:53;98100.59;;;19.98;51.78
53900;BME280;40509;32.858;-116.858;2023-04-19T08:27:20;98105.28;;;19.95;52.08
53900;BME280;40509;32.858;-116.858;2023-04-19T08:29:47;98104.19;;;19.97;51.30
53900;BME280;40509;32.858;-116.858;2023-04-19T08:32:14;98096.03;;;20.00;51.42
53900;BME280;40509;32.858;-116.858;2023-04-19T08:34:42;98096.16;;;19.99;51.71
53900;BME280;40509;32.858;-116.858;2023-04-19T08:37:09;98102.50;;;19.96;51.80
53900;BME280;40509;32.858;-116.858;2023-04-19T08:39:36;98095.50;;;19.97;51.70
53900;BME280;40509;32.858;-116.858;2023-04-19T08:42:08;98092.16;;;19.95;51.62
53900;BME280;40509;32.858;-116.858;2023-04-19T08:44:36;98084.47;;;19.93;51.90
53900;BME280;40509;32.858;-116.858;2023-04-19T08:47:05;98085.28;;;19.94;51.49
53900;BME280;40509;32.858;-116.858;2023-04-19T08:49:34;98076.59;;;19.93;51.53
53900;BME280;40509;32.858;-116.858;2023-04-19T08:52:06;98077.41;;;19.94;51.46
53900;BME280;40509;32.858;-116.858;2023-04-19T08:54:35;98075.22;;;19.89;51.57
53900;BME280;40509;32.858;-116.858;2023-04-19T08:57:02;98076.03;;;19.90;51.28
53900;BME280;40509;32.858;-116.858;2023-04-19T08:59:29;98079.88;;;19.85;51.78
53900;BME280;40509;32.858;-116.858;2023-04-19T09:02:00;98075.75;;;19.83;51.85
53900;BME280;40509;32.858;-116.858;2023-04-19T09:04:27;98076.84;;;19.80;51.63
53900;BME280;40509;32.858;-116.858;2023-04-19T09:06:54;98076.00;;;19.80;51.63
53900;BME280;40509;32.858;-116.858;2023-04-19T09:09:27;98073.28;;;19.81;51.43
53900;BME280;40509;32.858;-116.858;2023-04-19T09:11:55;98077.66;;;19.71;51.92
53900;BME280;40509;32.858;-116.858;2023-04-19T09:14:27;98068.00;;;19.71;52.10
53900;BME280;40509;32.858;-116.858;2023-04-19T09:17:11;98068.00;;;19.71;51.43
53900;BME280;40509;32.858;-116.858;2023-04-19T09:19:47;98070.63;;;19.71;51.70
53900;BME280;40509;32.858;-116.858;2023-04-19T09:22:15;98076.66;;;19.72;51.42
53900;BME280;40509;32.858;-116.858;2023-04-19T09:24:42;98072.28;;;19.73;51.47
53900;BME280;40509;32.858;-116.858;2023-04-19T09:27:09;98062.47;;;19.75;51.48
53900;BME280;40509;32.858;-116.858;2023-04-19T09:29:39;98061.81;;;19.73;51.43
53900;BME280;40509;32.858;-116.858;2023-04-19T09:32:06;98060.69;;;19.75;51.12
53900;BME280;40509;32.858;-116.858;2023-04-19T09:34:34;98064.56;;;19.71;51.56
53900;BME280;40509;32.858;-116.858;2023-04-19T09:37:11;98064.41;;;19.73;51.31
53900;BME280;40509;32.858;-116.858;2023-04-19T09:39:39;98068.94;;;19.70;51.59
53900;BME280;40509;32.858;-116.858;2023-04-19T09:42:06;98070.75;;;19.70;51.07
53900;BME280;40509;32.858;-116.858;2023-04-19T09:44:33;98068.94;;;19.70;51.09
53900;BME280;40509;32.858;-116.858;2023-04-19T09:47:01;98068.28;;;19.68;51.45
53900;BME280;40509;32.858;-116.858;2023-04-19T09:49:28;98069.91;;;19.69;51.20
53900;BME280;40509;32.858;-116.858;2023-04-19T09:51:56;98073.75;;;19.65;51.63
53900;BME280;40509;32.858;-116.858;2023-04-19T09:54:25;98070.03;;;19.58;51.42
53900;BME280;40509;32.858;-116.858;2023-04-19T09:56:58;98068.22;;;19.59;51.53
53900;BME280;40509;32.858;-116.858;2023-04-19T09:59:27;98069.75;;;19.51;51.83
53900;BME280;40509;32.858;-116.858;2023-04-19T10:01:54;98065.91;;;19.55;51.24
53900;BME280;40509;32.858;-116.858;2023-04-19T10:04:22;98064.13;;;19.56;51.23
53900;BME280;40509;32.858;-116.858;2023-04-19T10:06:50;98065.22;;;19.53;51.32
53900;BME280;40509;32.858;-116.858;2023-04-19T10:09:20;98066.44;;;19.49;51.19
53900;BME280;40509;32.858;-116.858;2023-04-19T10:11:49;98075.53;;;19.45;51.55
53900;BME280;40509;32.858;-116.858;2023-04-19T10:14:24;98075.13;;;19.50;51.27
53900;BME280;40509;32.858;-116.858;2023-04-19T10:16:55;98070.03;;;19.48;51.06
53900;BME280;40509;32.858;-116.858;2023-04-19T10:19:23;98072.38;;;19.51;51.19
53900;BME280;40509;32.858;-116.858;2023-04-19T10:21:51;98067.13;;;19.51;50.93
53900;BME280;40509;32.858;-116.858;2023-04-19T10:24:18;98058.47;;;19.51;51.33
53900;BME280;40509;32.858;-116.858;2023-04-19T10:27:10;98068.78;;;19.52;51.06
53900;BME280;40509;32.858;-116.858;2023-04-19T10:30:00;98063.84;;;19.49;51.27
53900;BME280;40509;32.858;-116.858;2023-04-19T10:32:36;98065.06;;;19.45;51.26
53900;BME280;40509;32.858;-116.858;2023-04-19T10:43:31;98060.06;;;19.42;51.31
53900;BME280;40509;32.858;-116.858;2023-04-19T10:48:39;98058.44;;;19.41;51.01
53900;BME280;40509;32.858;-116.858;2023-04-19T10:53:56;98058.00;;;19.36;51.26
53900;BME280;40509;32.858;-116.858;2023-04-19T11:01:40;98065.16;;;19.34;50.88
53900;BME280;40509;32.858;-116.858;2023-04-19T11:07:16;98069.28;;;19.27;51.15
53900;BME280;40509;32.858;-116.858;2023-04-19T11:09:48;98073.41;;;19.29;51.02
53900;BME280;40509;32.858;-116.858;2023-04-19T11:12:20;98075.75;;;19.32;51.04
53900;BME280;40509;32.858;-116.858;2023-04-19T11:14:50;98067.91;;;19.32;50.89
53900;BME280;40509;32.858;-116.858;2023-04-19T11:17:21;98071.63;;;19.30;50.97
53900;BME280;40509;32.858;-116.858;2023-04-19T11:20:07;98065.56;;;19.29;50.79
53900;BME280;40509;32.858;-116.858;2023-04-19T11:22:39;98071.63;;;19.30;51.12
53900;BME280;40509;32.858;-116.858;2023-04-19T11:25:10;98069.28;;;19.27;51.18
53900;BME280;40509;32.858;-116.858;2023-04-19T11:27:39;98077.13;;;19.27;51.04
53900;BME280;40509;32.858;-116.858;2023-04-19T11:30:12;98074.50;;;19.27;50.79
53900;BME280;40509;32.858;-116.858;2023-04-19T11:32:53;98078.66;;;19.29;50.83
53900;BME280;40509;32.858;-116.858;2023-04-19T11:35:24;98073.56;;;19.28;51.13
53900;BME280;40509;32.858;-116.858;2023-04-19T11:37:52;98075.88;;;19.21;50.96
53900;BME280;40509;32.858;-116.858;2023-04-19T11:40:22;98074.78;;;19.24;50.77
53900;BME280;40509;32.858;-116.858;2023-04-19T11:42:59;98072.97;;;19.24;51.17
53900;BME280;40509;32.858;-116.858;2023-04-19T11:45:27;98074.78;;;19.24;50.83
53900;BME280;40509;32.858;-116.858;2023-04-19T11:47:56;98075.28;;;19.17;51.04
53900;BME280;40509;32.858;-116.858;2023-04-19T11:53:03;98077.25;;;19.15;50.72
53900;BME280;40509;32.858;-116.858;2023-04-19T11:55:35;98073.91;;;19.13;50.94
53900;BME280;40509;32.858;-116.858;2023-04-19T11:58:06;98077.25;;;19.15;50.76
53900;BME280;40509;32.858;-116.858;2023-04-19T12:00:35;98083.41;;;19.14;50.82
53900;BME280;40509;32.858;-116.858;2023-04-19T12:03:03;98069.75;;;19.11;51.18
53900;BME280;40509;32.858;-116.858;2023-04-19T12:05:30;98072.25;;;19.12;51.02
53900;BME280;40509;32.858;-116.858;2023-04-19T12:08:06;98065.63;;;19.08;50.67
53900;BME280;40509;32.858;-116.858;2023-04-19T12:10:37;98073.63;;;19.16;50.67
53900;BME280;40509;32.858;-116.858;2023-04-19T12:13:17;98069.63;;;19.12;50.63
53900;BME280;40509;32.858;-116.858;2023-04-19T12:15:45;98065.63;;;19.08;50.58
53900;BME280;40509;32.858;-116.858;2023-04-19T12:18:14;98065.34;;;19.11;50.97
53900;BME280;40509;32.858;-116.858;2023-04-19T12:20:47;98064.66;;;19.09;51.11
53900;BME280;40509;32.858;-116.858;2023-04-19T12:23:14;98068.94;;;19.10;50.48
53900;BME280;40509;32.858;-116.858;2023-04-19T12:25:44;98070.72;;;19.10;50.67
53900;BME280;40509;32.858;-116.858;2023-04-19T12:28:12;98067.28;;;19.09;50.72
53900;BME280;40509;32.858;-116.858;2023-04-19T12:30:40;98061.09;;;19.10;50.62
53900;BME280;40509;32.858;-116.858;2023-04-19T12:33:08;98071.13;;;19.05;50.81
53900;BME280;40509;32.858;-116.858;2023-04-19T12:35:36;98073.75;;;19.05;51.02
53900;BME280;40509;32.858;-116.858;2023-04-19T12:38:04;98075.41;;;19.06;50.72
53900;BME280;40509;32.858;-116.858;2023-04-19T12:40:32;98078.97;;;19.05;50.88
53900;BME280;40509;32.858;-116.858;2023-04-19T12:42:59;98071.25;;;19.03;50.96
53900;BME280;40509;32.858;-116.858;2023-04-19T12:45:27;98073.88;;;19.03;50.62
53900;BME280;40509;32.858;-116.858;2023-04-19T12:47:54;98078.41;;;19.01;50.67
53900;BME280;40509;32.858;-116.858;2023-04-19T12:50:22;98075.91;;;19.00;50.86
53900;BME280;40509;32.858;-116.858;2023-04-19T12:52:49;98071.91;;;18.96;50.70
53900;BME280;40509;32.858;-116.858;2023-04-19T12:55:19;98075.09;;;18.99;50.73
53900;BME280;40509;32.858;-116.858;2023-04-19T12:57:46;98077.00;;;18.97;50.92
53900;BME280;40509;32.858;-116.858;2023-04-19T13:00:13;98084.59;;;19.00;50.77
53900;BME280;40509;32.858;-116.858;2023-04-19T13:02:41;98084.84;;;18.97;50.75
53900;BME280;40509;32.858;-116.858;2023-04-19T13:05:08;98086.50;;;18.98;50.34